createdAt,value
2022-11-02T00:02:45.007Z,30.90
2022-11-02T00:06:05.897Z,26.90
2022-11-02T00:09:53.596Z,29.30
2022-11-02T00:13:42.960Z,25.90
2022-11-02T00:20:51.590Z,26.60
2022-11-02T00:24:13.615Z,27.00
2022-11-02T00:27:38.940Z,29.30
2022-11-02T00:30:55.569Z,28.50
2022-11-02T00:34:18.593Z,25.30
2022-11-02T00:37:26.700Z,24.00
2022-11-02T00:40:44.045Z,26.20
2022-11-02T00:43:54.705Z,27.90
2022-11-02T00:47:05.585Z,24.40
2022-11-02T00:50:20.620Z,26.20
2022-11-02T00:53:27.633Z,26.00
2022-11-02T00:56:46.966Z,26.60
2022-11-02T01:00:02.700Z,26.00
2022-11-02T01:07:10.689Z,28.50
2022-11-02T01:10:57.543Z,28.90
2022-11-02T01:14:56.047Z,27.60
2022-11-02T01:18:04.721Z,26.50
2022-11-02T01:21:12.639Z,28.50
2022-11-02T01:24:22.602Z,29.90
2022-11-02T01:27:29.644Z,28.20
2022-11-02T01:30:36.674Z,26.20
2022-11-02T01:33:46.665Z,25.70
2022-11-02T01:36:56.673Z,24.50
2022-11-02T01:40:06.669Z,26.20
2022-11-02T01:43:16.701Z,22.30
2022-11-02T01:46:23.681Z,28.70
2022-11-02T01:49:30.706Z,26.50
2022-11-02T01:52:40.698Z,23.10
2022-11-02T01:55:50.752Z,24.20
2022-11-02T01:58:57.696Z,24.90
2022-11-02T02:02:07.920Z,25.50
2022-11-02T02:05:15.666Z,30.60
2022-11-02T02:08:22.800Z,27.90
2022-11-02T02:11:29.734Z,29.20
2022-11-02T02:14:39.747Z,26.60
2022-11-02T02:17:46.754Z,26.90
2022-11-02T02:20:56.794Z,27.50
2022-11-02T02:24:03.809Z,25.40
2022-11-02T02:27:13.773Z,27.00
2022-11-02T02:30:20.833Z,29.20
2022-11-02T02:33:34.786Z,26.70
2022-11-02T02:39:51.808Z,25.60
2022-11-02T02:42:58.818Z,21.50
2022-11-02T02:46:08.815Z,20.70
2022-11-02T02:49:18.835Z,22.00
2022-11-02T02:52:28.880Z,24.70
2022-11-02T02:55:38.840Z,18.00
2022-11-02T02:58:48.871Z,20.30
2022-11-02T03:01:55.964Z,21.60
2022-11-02T03:05:05.876Z,18.80
2022-11-02T03:08:15.904Z,17.60
2022-11-02T03:11:25.874Z,16.80
2022-11-02T03:14:32.913Z,15.80
2022-11-02T03:17:39.883Z,15.40
2022-11-02T03:20:46.900Z,18.50
2022-11-02T03:23:53.923Z,18.90
2022-11-02T03:27:00.925Z,17.30
2022-11-02T03:30:07.977Z,18.80
2022-11-02T03:33:18.914Z,18.70
2022-11-02T03:36:26.017Z,20.20
2022-11-02T03:39:36.022Z,18.00
2022-11-02T03:42:43.980Z,17.80
2022-11-02T03:45:50.970Z,18.40
2022-11-02T03:48:57.983Z,18.00
2022-11-02T03:52:08.006Z,16.70
2022-11-02T03:55:14.950Z,27.70
2022-11-02T03:58:22.024Z,21.90
2022-11-02T04:01:32.168Z,19.00
2022-11-02T04:04:40.055Z,18.10
2022-11-02T04:07:50.338Z,20.00
2022-11-02T04:10:59.467Z,18.20
2022-11-02T04:14:07.059Z,17.00
2022-11-02T04:17:17.082Z,18.20
2022-11-02T04:20:27.086Z,15.10
2022-11-02T04:23:37.067Z,18.90
2022-11-02T04:26:47.085Z,16.90
2022-11-02T04:30:00.133Z,17.40
2022-11-02T04:33:10.078Z,15.00
2022-11-02T04:36:17.108Z,12.30
2022-11-02T04:39:27.120Z,20.60
2022-11-02T04:42:37.107Z,18.30
2022-11-02T04:45:44.105Z,18.50
2022-11-02T04:48:51.153Z,18.20
2022-11-02T04:52:05.165Z,18.90
2022-11-02T04:55:12.121Z,16.70
2022-11-02T04:58:22.114Z,20.70
2022-11-02T05:01:32.237Z,17.70
2022-11-02T05:04:42.309Z,17.80
2022-11-02T05:07:57.219Z,17.90
2022-11-02T05:11:09.155Z,18.60
2022-11-02T05:14:19.219Z,17.10
2022-11-02T05:17:40.198Z,16.80
2022-11-02T05:20:50.312Z,19.70
2022-11-02T05:24:00.274Z,14.10
2022-11-02T05:27:07.220Z,19.70
2022-11-02T05:30:17.192Z,20.10
2022-11-02T05:33:29.415Z,16.50
2022-11-02T05:36:38.259Z,17.30
2022-11-02T05:39:50.483Z,20.30
2022-11-02T05:42:58.291Z,14.00
2022-11-02T05:46:08.243Z,18.70
2022-11-02T05:49:25.363Z,15.00
2022-11-02T05:52:35.328Z,17.30
2022-11-02T05:55:45.353Z,16.70
2022-11-02T05:58:55.366Z,19.20
2022-11-02T06:02:08.346Z,22.20
2022-11-02T06:05:23.404Z,25.20
2022-11-02T06:08:37.917Z,20.40
2022-11-02T06:15:28.180Z,22.00
2022-11-02T06:18:38.439Z,16.50
2022-11-02T06:21:48.775Z,23.40
2022-11-02T06:25:02.319Z,26.20
2022-11-02T06:28:15.388Z,25.70
2022-11-02T06:31:29.368Z,83.90
2022-11-02T06:34:42.535Z,61.10
2022-11-02T06:37:52.551Z,41.00
2022-11-02T06:41:24.664Z,29.60
2022-11-02T06:52:08.386Z,34.90
2022-11-02T06:55:32.323Z,44.30
2022-11-02T06:58:46.509Z,32.50
2022-11-02T07:01:56.554Z,41.20
2022-11-02T07:05:06.542Z,36.60
2022-11-02T07:08:16.676Z,37.90
2022-11-02T07:11:26.473Z,37.10
2022-11-02T07:14:36.597Z,37.40
2022-11-02T07:17:43.635Z,27.30
2022-11-02T07:20:51.521Z,25.40
2022-11-02T07:24:10.589Z,25.90
2022-11-02T07:28:03.514Z,19.40
2022-11-02T07:31:53.671Z,22.30
2022-11-02T07:38:12.797Z,21.90
2022-11-02T07:41:22.682Z,18.30
2022-11-02T07:44:29.656Z,19.40
2022-11-02T07:47:37.699Z,20.20
2022-11-02T07:50:47.738Z,18.40
2022-11-02T07:53:57.743Z,27.20
2022-11-02T07:57:07.768Z,22.90
2022-11-02T08:00:14.740Z,29.80
2022-11-02T08:03:23.786Z,35.40
2022-11-02T08:06:33.860Z,33.60
2022-11-02T08:09:43.865Z,27.60
2022-11-02T08:12:51.774Z,32.10
2022-11-02T08:16:01.838Z,29.80
2022-11-02T08:19:29.965Z,29.00
2022-11-02T08:22:39.757Z,30.90
2022-11-02T08:25:46.842Z,28.40
2022-11-02T08:28:53.782Z,31.00
2022-11-02T08:32:00.836Z,25.40
2022-11-02T08:35:12.906Z,24.30
2022-11-02T08:38:19.857Z,33.50
2022-11-02T08:41:32.833Z,26.30
2022-11-02T08:44:42.943Z,22.10
2022-11-02T08:47:50.884Z,23.80
2022-11-02T08:51:00.926Z,26.60
2022-11-02T08:54:07.883Z,23.70
2022-11-02T08:57:15.681Z,27.00
2022-11-02T09:00:23.037Z,26.70
2022-11-02T09:03:30.954Z,25.20
2022-11-02T09:06:42.034Z,24.60
2022-11-02T09:10:11.956Z,25.20
2022-11-02T09:13:21.951Z,22.70
2022-11-02T09:16:32.073Z,20.90
2022-11-02T09:19:44.928Z,23.30
2022-11-02T09:22:55.004Z,25.40
2022-11-02T09:26:01.919Z,24.80
2022-11-02T09:29:11.976Z,18.00
2022-11-02T09:32:21.999Z,22.80
2022-11-02T09:35:35.044Z,19.50
2022-11-02T09:38:42.026Z,21.20
2022-11-02T09:41:48.967Z,23.20
2022-11-02T09:45:03.037Z,22.10
2022-11-02T09:48:19.661Z,20.60
2022-11-02T09:51:34.032Z,22.60
2022-11-02T09:54:41.017Z,23.50
2022-11-02T09:57:48.030Z,22.80
2022-11-02T10:01:01.594Z,17.10
2022-11-02T10:04:09.062Z,20.70
2022-11-02T10:07:20.082Z,22.20
2022-11-02T10:10:27.198Z,22.70
2022-11-02T10:13:38.052Z,21.70
2022-11-02T10:17:00.083Z,21.10
2022-11-02T10:20:07.125Z,23.50
2022-11-02T10:23:14.085Z,25.40
2022-11-02T10:26:21.192Z,24.40
2022-11-02T10:29:31.238Z,24.90
2022-11-02T10:32:38.131Z,18.70
2022-11-02T10:36:12.520Z,20.10
2022-11-02T10:39:18.114Z,19.20
2022-11-02T10:42:25.231Z,18.90
2022-11-02T10:45:35.244Z,20.80
2022-11-02T10:48:45.292Z,21.10
2022-11-02T10:51:59.276Z,21.50
2022-11-02T10:55:09.210Z,16.70
2022-11-02T10:58:16.233Z,16.90
2022-11-02T11:01:28.359Z,21.20
2022-11-02T11:04:35.212Z,22.10
2022-11-02T11:07:46.290Z,23.20
2022-11-02T11:10:58.195Z,20.60
2022-11-02T11:21:09.265Z,21.00
2022-11-02T11:24:19.300Z,19.90
2022-11-02T11:27:29.261Z,22.80
2022-11-02T11:30:58.900Z,19.00
2022-11-02T11:34:08.292Z,20.20
2022-11-02T11:37:15.996Z,30.20
2022-11-02T11:40:27.373Z,19.20
2022-11-02T11:43:34.334Z,17.40
2022-11-02T11:46:44.314Z,23.30
2022-11-02T11:50:29.251Z,19.50
2022-11-02T11:53:21.286Z,27.20
2022-11-02T11:56:29.381Z,20.90
2022-11-02T11:59:39.423Z,17.80
2022-11-02T12:02:51.546Z,23.30
2022-11-02T12:05:59.407Z,23.50
2022-11-02T12:09:09.365Z,16.00
2022-11-02T12:12:16.475Z,19.20
2022-11-02T12:15:27.386Z,18.00
2022-11-02T12:18:35.399Z,20.80
2022-11-02T12:21:42.432Z,19.70
2022-11-02T12:24:49.407Z,19.70
2022-11-02T12:27:56.458Z,19.30
2022-11-02T12:31:06.375Z,16.80
2022-11-02T12:34:13.529Z,18.00
2022-11-02T12:37:41.328Z,20.60
2022-11-02T12:40:59.450Z,18.60
2022-11-02T12:44:07.470Z,22.20
2022-11-02T12:47:33.047Z,17.50
2022-11-02T12:50:40.679Z,19.40
2022-11-02T12:53:50.488Z,19.10
2022-11-02T12:57:00.502Z,17.90
2022-11-02T13:00:10.479Z,20.80
2022-11-02T13:03:17.444Z,16.10
2022-11-02T13:06:24.445Z,14.70
2022-11-02T13:09:34.615Z,18.10
2022-11-02T13:12:44.605Z,15.90
2022-11-02T13:15:51.509Z,12.50
2022-11-02T13:18:59.439Z,17.00
2022-11-02T13:22:06.536Z,12.30
2022-11-02T13:25:16.498Z,18.40
2022-11-02T13:28:26.546Z,17.70
2022-11-02T13:31:33.576Z,16.90
2022-11-02T13:34:40.599Z,18.60
2022-11-02T13:37:47.539Z,14.30
2022-11-02T13:40:54.644Z,19.10
2022-11-02T13:44:02.624Z,20.00
2022-11-02T13:47:12.655Z,16.00
2022-11-02T13:50:26.685Z,20.40
2022-11-02T13:53:33.674Z,21.10
2022-11-02T13:56:40.634Z,18.10
2022-11-02T13:59:47.747Z,18.40
2022-11-02T14:03:10.092Z,19.60
2022-11-02T14:06:32.559Z,19.60
2022-11-02T14:10:14.573Z,20.10
2022-11-02T14:13:33.012Z,25.00
2022-11-02T14:21:01.825Z,19.40
2022-11-02T14:24:16.758Z,19.20
2022-11-02T14:27:26.718Z,18.90
2022-11-02T14:33:57.794Z,26.00
2022-11-02T14:37:14.322Z,21.00
2022-11-02T14:40:26.438Z,18.20
2022-11-02T14:43:33.819Z,21.50
2022-11-02T14:46:45.736Z,22.70
2022-11-02T14:49:53.857Z,21.30
2022-11-02T14:53:08.078Z,29.30
2022-11-02T14:56:18.797Z,23.80
2022-11-02T14:59:25.781Z,25.80
2022-11-02T15:02:33.014Z,21.50
2022-11-02T15:05:44.823Z,19.60
2022-11-02T15:08:54.821Z,18.60
2022-11-02T15:12:02.820Z,24.10
2022-11-02T15:15:09.781Z,24.10
2022-11-02T15:18:16.855Z,25.00
2022-11-02T15:21:23.867Z,23.10
2022-11-02T15:24:30.849Z,24.80
2022-11-02T15:27:37.994Z,25.80
2022-11-02T15:30:47.948Z,26.70
2022-11-02T15:33:55.891Z,25.60
2022-11-02T15:37:02.910Z,26.40
2022-11-02T15:40:09.902Z,24.60
2022-11-02T15:43:16.905Z,25.40
2022-11-02T15:46:26.948Z,23.10
2022-11-02T15:49:33.858Z,22.40
2022-11-02T15:53:08.707Z,25.30
2022-11-02T15:56:11.926Z,25.50
2022-11-02T15:59:21.973Z,26.40
2022-11-02T16:02:31.971Z,26.30
2022-11-02T16:05:42.014Z,27.50
2022-11-02T16:08:49.000Z,29.90
2022-11-02T16:11:56.011Z,30.10
2022-11-02T16:15:03.053Z,28.20
2022-11-02T16:18:12.984Z,33.20
2022-11-02T16:21:23.032Z,30.00
2022-11-02T16:24:30.264Z,32.20
2022-11-02T16:27:38.041Z,31.60
2022-11-02T16:30:45.035Z,34.20
2022-11-02T16:33:52.038Z,28.30
2022-11-02T16:36:59.124Z,32.30
2022-11-02T16:40:06.030Z,32.60
2022-11-02T16:43:16.109Z,33.00
2022-11-02T16:46:23.032Z,29.30
2022-11-02T16:49:30.061Z,35.40
2022-11-02T16:52:40.091Z,35.60
2022-11-02T16:55:47.149Z,45.50
2022-11-02T16:58:54.181Z,41.90
2022-11-02T17:02:08.223Z,45.20
2022-11-02T17:05:20.136Z,41.10
2022-11-02T17:08:30.102Z,40.90
2022-11-02T17:11:37.146Z,38.60
2022-11-02T17:14:44.134Z,41.50
2022-11-02T17:17:51.127Z,43.00
2022-11-02T17:20:58.156Z,42.30
2022-11-02T17:24:07.157Z,38.60
2022-11-02T17:27:14.243Z,31.80
2022-11-02T17:30:24.212Z,37.00
2022-11-02T17:33:31.227Z,35.10
2022-11-02T17:36:40.192Z,34.90
2022-11-02T17:39:47.196Z,36.20
2022-11-02T17:42:54.213Z,39.20
2022-11-02T17:46:04.230Z,42.40
2022-11-02T17:49:11.214Z,48.60
2022-11-02T17:52:22.294Z,50.00
2022-11-02T17:55:36.267Z,50.80
2022-11-02T17:58:43.235Z,49.60
2022-11-02T18:01:51.795Z,52.10
2022-11-02T18:05:03.250Z,54.80
2022-11-02T18:08:10.270Z,55.80
2022-11-02T18:11:19.731Z,53.00
2022-11-02T18:14:31.255Z,54.50
2022-11-02T18:17:38.325Z,53.20
2022-11-02T18:20:48.301Z,49.40
2022-11-02T18:24:00.345Z,47.80
2022-11-02T18:27:10.282Z,58.20
2022-11-02T18:30:17.339Z,53.40
2022-11-02T18:33:24.324Z,54.20
2022-11-02T18:36:31.381Z,53.30
2022-11-02T18:39:41.388Z,51.40
2022-11-02T18:42:48.371Z,52.30
2022-11-02T18:45:55.351Z,55.40
2022-11-02T18:49:02.415Z,56.40
2022-11-02T18:52:19.731Z,50.70
2022-11-02T18:55:29.414Z,53.50
2022-11-02T18:58:36.397Z,51.70
2022-11-02T19:01:46.485Z,51.90
2022-11-02T19:04:54.377Z,48.30
2022-11-02T19:08:09.395Z,61.10
2022-11-02T19:11:16.410Z,56.00
2022-11-02T19:14:23.432Z,51.20
2022-11-02T19:17:33.558Z,56.00
2022-11-02T19:20:43.420Z,53.40
2022-11-02T19:23:50.447Z,56.80
2022-11-02T19:26:57.469Z,62.90
2022-11-02T19:30:04.544Z,52.10
2022-11-02T19:33:17.493Z,53.20
2022-11-02T19:36:24.481Z,55.80
2022-11-02T19:39:31.502Z,55.50
2022-11-02T19:42:41.607Z,51.40
2022-11-02T19:45:52.562Z,38.00
2022-11-02T19:48:59.522Z,34.80
2022-11-02T19:52:09.570Z,35.20
2022-11-02T19:55:22.640Z,35.30
2022-11-02T19:58:32.508Z,34.10
2022-11-02T20:01:40.606Z,33.50
2022-11-02T20:04:50.604Z,33.40
2022-11-02T20:07:57.531Z,28.30
2022-11-02T20:11:04.730Z,24.30
2022-11-02T20:14:11.741Z,25.40
2022-11-02T20:17:52.125Z,24.70
2022-11-02T20:20:51.598Z,25.70
2022-11-02T20:23:58.608Z,38.70
2022-11-02T20:27:05.632Z,24.10
2022-11-02T20:30:15.608Z,23.00
2022-11-02T20:33:22.654Z,25.10
2022-11-02T20:36:35.629Z,22.40
2022-11-02T20:39:42.674Z,22.60
2022-11-02T20:42:49.653Z,24.90
2022-11-02T20:46:06.029Z,19.20
2022-11-02T20:49:48.684Z,21.80
2022-11-02T20:52:50.688Z,21.00
2022-11-02T20:56:00.706Z,21.90
2022-11-02T20:59:08.871Z,22.40
2022-11-02T21:02:15.786Z,20.70
2022-11-02T21:05:26.799Z,23.00
2022-11-02T21:08:33.756Z,23.80
2022-11-02T21:11:44.713Z,20.70
2022-11-02T21:14:51.767Z,21.00
2022-11-02T21:17:58.729Z,21.90
2022-11-02T21:21:08.753Z,22.00
2022-11-02T21:24:15.757Z,23.60
2022-11-02T21:27:22.775Z,20.30
2022-11-02T21:30:29.745Z,25.90
2022-11-02T21:33:39.811Z,18.20
2022-11-02T21:36:46.794Z,18.20
2022-11-02T21:39:53.819Z,20.30
2022-11-02T21:43:00.779Z,23.30
2022-11-02T21:46:07.797Z,19.20
2022-11-02T21:49:14.816Z,21.70
2022-11-02T21:52:21.891Z,24.00
2022-11-02T21:55:31.825Z,21.60
2022-11-02T21:58:44.531Z,20.10
2022-11-02T22:01:53.911Z,22.20
2022-11-02T22:05:03.858Z,23.10
2022-11-02T22:08:10.869Z,21.20
2022-11-02T22:11:20.880Z,23.60
2022-11-02T22:14:30.955Z,20.20
2022-11-02T22:17:50.180Z,20.90
2022-11-02T22:21:01.925Z,20.50
2022-11-02T22:24:11.969Z,25.70
2022-11-02T22:27:21.949Z,21.50
2022-11-02T22:30:28.916Z,23.00
2022-11-02T22:33:38.903Z,21.70
2022-11-02T22:36:45.922Z,27.50
2022-11-02T22:39:52.955Z,24.10
2022-11-02T22:43:02.992Z,23.90
2022-11-02T22:46:12.942Z,25.60
2022-11-02T22:49:19.941Z,23.70
2022-11-02T22:52:26.963Z,21.10
2022-11-02T22:55:34.013Z,24.60
2022-11-02T22:58:40.980Z,23.30
2022-11-02T23:01:48.032Z,22.90
2022-11-02T23:04:57.977Z,23.70
2022-11-02T23:08:05.022Z,24.00
2022-11-02T23:11:18.014Z,22.30
2022-11-02T23:14:25.022Z,22.50
2022-11-02T23:17:32.089Z,25.60
2022-11-02T23:20:42.021Z,26.20
2022-11-02T23:23:49.018Z,22.50
2022-11-02T23:26:56.023Z,27.30
2022-11-02T23:30:03.140Z,22.90
2022-11-02T23:33:13.099Z,25.80
2022-11-02T23:36:23.063Z,21.20
2022-11-02T23:39:33.084Z,24.90
2022-11-02T23:42:43.262Z,25.70
2022-11-02T23:45:53.099Z,22.60
2022-11-02T23:49:00.100Z,26.40
2022-11-02T23:52:10.090Z,24.20
2022-11-02T23:55:17.180Z,21.60
2022-11-02T23:58:27.119Z,24.80
